sensor_id;sensor_type;location;lat;lon;timestamp;pressure;altitude;pressure_sealevel;temperature;humidity
75656;BME280;64252;51.094;13.714;2023-07-13T00:00:41;99998.84;;;22.94;50.31
75656;BME280;64252;51.094;13.714;2023-07-13T00:03:08;100002.09;;;22.87;50.23
75656;BME280;64252;51.094;13.714;2023-07-13T00:05:33;100001.75;;;22.85;51.52
75656;BME280;64252;51.094;13.714;2023-07-13T00:07:59;99998.88;;;22.85;50.57
75656;BME280;64252;51.094;13.714;2023-07-13T00:10:25;100005.91;;;22.84;50.23
75656;BME280;64252;51.094;13.714;2023-07-13T00:12:51;99998.41;;;22.86;50.99
75656;BME280;64252;51.094;13.714;2023-07-13T00:15:23;100002.53;;;22.94;50.46
75656;BME280;64252;51.094;13.714;2023-07-13T00:17:54;100002.38;;;22.89;50.83
75656;BME280;64252;51.094;13.714;2023-07-13T00:20:21;100008.81;;;22.93;50.51
75656;BME280;64252;51.094;13.714;2023-07-13T00:22:49;100007.19;;;22.92;50.77
75656;BME280;64252;51.094;13.714;2023-07-13T00:25:15;100023.03;;;22.87;50.63
75656;BME280;64252;51.094;13.714;2023-07-13T00:27:42;100024.66;;;22.88;50.57
75656;BME280;64252;51.094;13.714;2023-07-13T00:30:10;100025.28;;;22.83;51.14
75656;BME280;64252;51.094;13.714;2023-07-13T00:32:37;100032.63;;;22.84;50.77
75656;BME280;64252;51.094;13.714;2023-07-13T00:35:03;100042.06;;;22.85;50.55
75656;BME280;64252;51.094;13.714;2023-07-13T00:37:30;100047.81;;;22.85;50.79
75656;BME280;64252;51.094;13.714;2023-07-13T00:39:57;100059.97;;;22.89;50.54
75656;BME280;64252;51.094;13.714;2023-07-13T00:42:23;100065.75;;;22.89;50.96
75656;BME280;64252;51.094;13.714;2023-07-13T00:47:43;100100.94;;;22.93;52.41
75656;BME280;64252;51.094;13.714;2023-07-13T00:50:11;100096.94;;;22.90;53.76
75656;BME280;64252;51.094;13.714;2023-07-13T00:52:40;100088.78;;;22.70;55.31
75656;BME280;64252;51.094;13.714;2023-07-13T00:55:06;100078.22;;;22.67;56.74
75656;BME280;64252;51.094;13.714;2023-07-13T00:57:33;100092.09;;;22.42;57.83
75656;BME280;64252;51.094;13.714;2023-07-13T01:00:03;100090.19;;;21.89;61.37
75656;BME280;64252;51.094;13.714;2023-07-13T01:02:39;100096.03;;;21.68;62.44
75656;BME280;64252;51.094;13.714;2023-07-13T01:05:16;100078.09;;;21.55;62.96
75656;BME280;64252;51.094;13.714;2023-07-13T01:07:44;100059.38;;;21.50;62.87
75656;BME280;64252;51.094;13.714;2023-07-13T01:10:11;100025.19;;;21.43;62.55
75656;BME280;64252;51.094;13.714;2023-07-13T01:12:37;100015.03;;;21.51;61.33
75656;BME280;64252;51.094;13.714;2023-07-13T01:15:04;100018.06;;;21.57;61.43
75656;BME280;64252;51.094;13.714;2023-07-13T01:17:33;100040.28;;;21.56;61.38
75656;BME280;64252;51.094;13.714;2023-07-13T01:19:59;100046.31;;;21.58;64.19
75656;BME280;64252;51.094;13.714;2023-07-13T01:22:25;100051.53;;;21.41;65.18
75656;BME280;64252;51.094;13.714;2023-07-13T01:24:53;100047.00;;;21.31;64.97
75656;BME280;64252;51.094;13.714;2023-07-13T01:27:25;100042.94;;;21.20;65.56
75656;BME280;64252;51.094;13.714;2023-07-13T01:29:52;100041.69;;;21.21;65.61
75656;BME280;64252;51.094;13.714;2023-07-13T01:32:21;100045.22;;;21.25;66.49
75656;BME280;64252;51.094;13.714;2023-07-13T01:34:51;100051.31;;;21.27;66.04
75656;BME280;64252;51.094;13.714;2023-07-13T01:37:20;100052.31;;;21.33;66.08
75656;BME280;64252;51.094;13.714;2023-07-13T01:39:47;100056.63;;;21.37;65.61
75656;BME280;64252;51.094;13.714;2023-07-13T01:42:13;100051.19;;;21.39;65.63
75656;BME280;64252;51.094;13.714;2023-07-13T01:44:40;100043.69;;;21.33;66.59
75656;BME280;64252;51.094;13.714;2023-07-13T01:47:07;100056.56;;;21.28;66.28
75656;BME280;64252;51.094;13.714;2023-07-13T01:49:32;100050.00;;;21.19;66.84
75656;BME280;64252;51.094;13.714;2023-07-13T01:51:58;100049.56;;;21.08;66.55
75656;BME280;64252;51.094;13.714;2023-07-13T01:54:24;100045.38;;;20.99;66.68
75656;BME280;64252;51.094;13.714;2023-07-13T01:56:50;100039.63;;;20.99;64.89
75656;BME280;64252;51.094;13.714;2023-07-13T01:59:16;100045.03;;;20.97;65.86
75656;BME280;64252;51.094;13.714;2023-07-13T02:01:41;100042.50;;;20.99;64.71
75656;BME280;64252;51.094;13.714;2023-07-13T02:04:07;100039.63;;;20.99;64.27
75656;BME280;64252;51.094;13.714;2023-07-13T02:06:33;100042.50;;;20.99;63.94
75656;BME280;64252;51.094;13.714;2023-07-13T02:08:59;100043.44;;;20.96;63.58
75656;BME280;64252;51.094;13.714;2023-07-13T02:11:25;100040.84;;;20.89;64.58
75656;BME280;64252;51.094;13.714;2023-07-13T02:13:59;100040.50;;;20.87;64.68
75656;BME280;64252;51.094;13.714;2023-07-13T02:16:26;100051.66;;;20.85;65.38
75656;BME280;64252;51.094;13.714;2023-07-13T02:18:52;100047.38;;;20.68;65.13
75656;BME280;64252;51.094;13.714;2023-07-13T02:21:17;100040.66;;;20.62;65.80
75656;BME280;64252;51.094;13.714;2023-07-13T02:23:44;100033.97;;;20.65;65.60
75656;BME280;64252;51.094;13.714;2023-07-13T02:26:09;100030.66;;;20.67;66.50
75656;BME280;64252;51.094;13.714;2023-07-13T02:28:35;100043.19;;;20.60;67.01
75656;BME280;64252;51.094;13.714;2023-07-13T02:31:13;100057.53;;;20.60;66.69
75656;BME280;64252;51.094;13.714;2023-07-13T02:33:40;100051.44;;;20.58;67.15
75656;BME280;64252;51.094;13.714;2023-07-13T02:36:05;100043.84;;;20.64;66.86
75656;BME280;64252;51.094;13.714;2023-07-13T02:38:34;100045.59;;;20.62;65.32
75656;BME280;64252;51.094;13.714;2023-07-13T02:41:04;100053.63;;;20.54;65.62
75656;BME280;64252;51.094;13.714;2023-07-13T02:43:30;100054.91;;;20.53;65.96
75656;BME280;64252;51.094;13.714;2023-07-13T02:45:56;100043.97;;;20.61;65.97
75656;BME280;64252;51.094;13.714;2023-07-13T02:48:22;100059.34;;;20.67;65.64
75656;BME280;64252;51.094;13.714;2023-07-13T02:50:47;100058.53;;;20.66;65.81
75656;BME280;64252;51.094;13.714;2023-07-13T02:53:13;100060.81;;;20.71;66.04
75656;BME280;64252;51.094;13.714;2023-07-13T02:55:39;100061.47;;;20.75;65.16
75656;BME280;64252;51.094;13.714;2023-07-13T02:58:06;100057.13;;;20.71;65.61
75656;BME280;64252;51.094;13.714;2023-07-13T03:00:32;100058.13;;;20.77;66.08
75656;BME280;64252;51.094;13.714;2023-07-13T03:02:58;100073.41;;;20.74;66.17
75656;BME280;64252;51.094;13.714;2023-07-13T03:05:25;100063.69;;;20.71;66.71
75656;BME280;64252;51.094;13.714;2023-07-13T03:07:50;100066.78;;;20.64;67.22
75656;BME280;64252;51.094;13.714;2023-07-13T03:10:17;100067.53;;;20.55;67.69
75656;BME280;64252;51.094;13.714;2023-07-13T03:12:47;100063.31;;;20.47;68.33
75656;BME280;64252;51.094;13.714;2023-07-13T03:15:22;100063.69;;;20.37;68.55
75656;BME280;64252;51.094;13.714;2023-07-13T03:17:49;100068.75;;;20.33;69.06
75656;BME280;64252;51.094;13.714;2023-07-13T03:20:15;100071.94;;;20.35;69.55
75656;BME280;64252;51.094;13.714;2023-07-13T03:22:42;100076.44;;;20.36;69.22
75656;BME280;64252;51.094;13.714;2023-07-13T03:25:08;100070.81;;;20.32;69.38
75656;BME280;64252;51.094;13.714;2023-07-13T03:27:35;100077.69;;;20.35;69.73
75656;BME280;64252;51.094;13.714;2023-07-13T03:30:02;100069.44;;;20.37;69.64
75656;BME280;64252;51.094;13.714;2023-07-13T03:32:28;100077.44;;;20.42;68.82
75656;BME280;64252;51.094;13.714;2023-07-13T03:34:53;100075.38;;;20.42;69.14
75656;BME280;64252;51.094;13.714;2023-07-13T03:37:19;100074.22;;;20.40;69.03
75656;BME280;64252;51.094;13.714;2023-07-13T03:39:45;100079.59;;;20.50;68.59
75656;BME280;64252;51.094;13.714;2023-07-13T03:42:11;100082.69;;;20.56;68.77
75656;BME280;64252;51.094;13.714;2023-07-13T03:44:39;100083.34;;;20.60;68.69
75656;BME280;64252;51.094;13.714;2023-07-13T03:47:05;100078.28;;;20.64;68.25
75656;BME280;64252;51.094;13.714;2023-07-13T03:49:31;100089.75;;;20.64;67.85
75656;BME280;64252;51.094;13.714;2023-07-13T03:51:57;100085.63;;;20.65;68.09
75656;BME280;64252;51.094;13.714;2023-07-13T03:54:24;100095.50;;;20.64;67.69
75656;BME280;64252;51.094;13.714;2023-07-13T03:56:50;100098.28;;;20.77;67.52
75656;BME280;64252;51.094;13.714;2023-07-13T03:59:17;100102.63;;;20.81;68.75
75656;BME280;64252;51.094;13.714;2023-07-13T04:01:45;100101.66;;;20.75;67.84
75656;BME280;64252;51.094;13.714;2023-07-13T04:04:11;100115.06;;;20.78;67.85
75656;BME280;64252;51.094;13.714;2023-07-13T04:06:38;100113.38;;;20.68;68.01
75656;BME280;64252;51.094;13.714;2023-07-13T04:09:04;100120.13;;;20.74;67.38
75656;BME280;64252;51.094;13.714;2023-07-13T04:11:34;100125.69;;;20.90;66.18
75656;BME280;64252;51.094;13.714;2023-07-13T04:14:02;100121.81;;;20.84;65.20
75656;BME280;64252;51.094;13.714;2023-07-13T04:16:28;100133.50;;;21.12;64.67
75656;BME280;64252;51.094;13.714;2023-07-13T04:18:55;100128.34;;;21.07;64.39
75656;BME280;64252;51.094;13.714;2023-07-13T04:21:26;100133.66;;;21.30;64.14
75656;BME280;64252;51.094;13.714;2023-07-13T04:23:52;100121.28;;;21.20;64.86
75656;BME280;64252;51.094;13.714;2023-07-13T04:26:19;100118.91;;;21.19;65.04
75656;BME280;64252;51.094;13.714;2023-07-13T04:28:47;100119.56;;;21.23;64.52
75656;BME280;64252;51.094;13.714;2023-07-13T04:31:13;100117.97;;;21.22;63.86
75656;BME280;64252;51.094;13.714;2023-07-13T04:33:39;100130.41;;;21.19;64.08
75656;BME280;64252;51.094;13.714;2023-07-13T04:36:05;100129.00;;;21.23;63.94
75656;BME280;64252;51.094;13.714;2023-07-13T04:38:32;100130.31;;;21.31;65.33
75656;BME280;64252;51.094;13.714;2023-07-13T04:41:01;100134.00;;;21.32;63.97
75656;BME280;64252;51.094;13.714;2023-07-13T04:43:28;100135.31;;;21.40;62.88
75656;BME280;64252;51.094;13.714;2023-07-13T04:45:54;100140.66;;;21.29;63.40
75656;BME280;64252;51.094;13.714;2023-07-13T04:48:21;100147.34;;;21.26;63.22
75656;BME280;64252;51.094;13.714;2023-07-13T04:50:47;100141.59;;;21.26;63.53
75656;BME280;64252;51.094;13.714;2023-07-13T04:53:14;100134.09;;;21.28;62.89
75656;BME280;64252;51.094;13.714;2023-07-13T04:55:40;100141.19;;;21.36;62.46
75656;BME280;64252;51.094;13.714;2023-07-13T04:58:06;100143.19;;;21.79;61.89
75656;BME280;64252;51.094;13.714;2023-07-13T05:00:32;100135.97;;;22.06;61.39
75656;BME280;64252;51.094;13.714;2023-07-13T05:02:59;100138.59;;;22.22;61.12
75656;BME280;64252;51.094;13.714;2023-07-13T05:05:25;100143.78;;;22.54;60.32
75656;BME280;64252;51.094;13.714;2023-07-13T05:07:53;100139.97;;;23.03;59.08
75656;BME280;64252;51.094;13.714;2023-07-13T05:10:19;100139.50;;;23.04;56.95
75656;BME280;64252;51.094;13.714;2023-07-13T05:12:45;100137.81;;;23.67;55.61
75656;BME280;64252;51.094;13.714;2023-07-13T05:15:11;100137.41;;;24.49;53.73
75656;BME280;64252;51.094;13.714;2023-07-13T05:17:38;100142.75;;;25.27;50.33
75656;BME280;64252;51.094;13.714;2023-07-13T05:20:08;100142.84;;;26.06;48.47
75656;BME280;64252;51.094;13.714;2023-07-13T05:22:34;100145.13;;;26.17;48.63
75656;BME280;64252;51.094;13.714;2023-07-13T05:25:02;100144.53;;;26.13;48.67
75656;BME280;64252;51.094;13.714;2023-07-13T05:27:28;100143.03;;;25.29;50.47
75656;BME280;64252;51.094;13.714;2023-07-13T05:29:54;100150.75;;;24.70;50.58
75656;BME280;64252;51.094;13.714;2023-07-13T05:32:20;100141.59;;;24.24;52.24
75656;BME280;64252;51.094;13.714;2023-07-13T05:34:46;100141.78;;;24.44;51.24
75656;BME280;64252;51.094;13.714;2023-07-13T05:37:11;100157.69;;;24.64;50.81
75656;BME280;64252;51.094;13.714;2023-07-13T05:39:37;100150.34;;;25.98;47.96
75656;BME280;64252;51.094;13.714;2023-07-13T05:42:03;100151.63;;;27.28;44.93
75656;BME280;64252;51.094;13.714;2023-07-13T05:44:30;100155.31;;;27.74;43.99
75656;BME280;64252;51.094;13.714;2023-07-13T05:46:56;100155.59;;;28.82;41.52
75656;BME280;64252;51.094;13.714;2023-07-13T05:49:22;100154.53;;;28.85;41.36
75656;BME280;64252;51.094;13.714;2023-07-13T05:51:48;100157.13;;;29.31;40.70
75656;BME280;64252;51.094;13.714;2023-07-13T05:54:14;100151.38;;;30.20;39.19
75656;BME280;64252;51.094;13.714;2023-07-13T05:56:40;100154.38;;;31.11;38.27
75656;BME280;64252;51.094;13.714;2023-07-13T05:59:06;100158.22;;;31.35;37.37
75656;BME280;64252;51.094;13.714;2023-07-13T06:01:33;100150.69;;;32.22;36.05
75656;BME280;64252;51.094;13.714;2023-07-13T06:04:00;100159.97;;;32.50;35.26
75656;BME280;64252;51.094;13.714;2023-07-13T06:06:25;100154.69;;;32.49;35.08
75656;BME280;64252;51.094;13.714;2023-07-13T06:08:51;100163.75;;;33.18;34.49
75656;BME280;64252;51.094;13.714;2023-07-13T06:11:25;100155.38;;;32.01;35.45
75656;BME280;64252;51.094;13.714;2023-07-13T06:13:51;100172.25;;;32.49;34.16
75656;BME280;64252;51.094;13.714;2023-07-13T06:16:17;100163.81;;;32.88;33.52
75656;BME280;64252;51.094;13.714;2023-07-13T06:18:43;100174.69;;;32.93;34.15
75656;BME280;64252;51.094;13.714;2023-07-13T06:21:13;100176.38;;;34.33;32.04
75656;BME280;64252;51.094;13.714;2023-07-13T06:23:40;100171.72;;;34.96;31.51
75656;BME280;64252;51.094;13.714;2023-07-13T06:26:06;100172.78;;;34.40;31.37
75656;BME280;64252;51.094;13.714;2023-07-13T06:28:33;100181.41;;;31.17;35.70
75656;BME280;64252;51.094;13.714;2023-07-13T06:30:59;100179.19;;;30.09;38.27
75656;BME280;64252;51.094;13.714;2023-07-13T06:33:26;100174.44;;;29.03;39.71
75656;BME280;64252;51.094;13.714;2023-07-13T06:35:52;100171.78;;;27.88;42.71
75656;BME280;64252;51.094;13.714;2023-07-13T06:38:18;100164.53;;;27.01;44.36
75656;BME280;64252;51.094;13.714;2023-07-13T06:40:45;100173.38;;;26.57;45.49
75656;BME280;64252;51.094;13.714;2023-07-13T06:43:11;100157.84;;;27.92;43.53
75656;BME280;64252;51.094;13.714;2023-07-13T06:45:46;100164.06;;;30.39;38.70
75656;BME280;64252;51.094;13.714;2023-07-13T06:48:14;100170.66;;;32.48;35.84
75656;BME280;64252;51.094;13.714;2023-07-13T06:50:41;100181.91;;;34.05;33.20
75656;BME280;64252;51.094;13.714;2023-07-13T06:53:07;100196.38;;;32.49;34.72
75656;BME280;64252;51.094;13.714;2023-07-13T06:55:33;100203.78;;;31.50;37.40
75656;BME280;64252;51.094;13.714;2023-07-13T06:57:58;100191.81;;;31.01;38.11
75656;BME280;64252;51.094;13.714;2023-07-13T07:00:24;100194.81;;;31.83;36.36
75656;BME280;64252;51.094;13.714;2023-07-13T07:02:50;100197.38;;;32.63;36.20
75656;BME280;64252;51.094;13.714;2023-07-13T07:05:15;100193.84;;;33.56;33.10
75656;BME280;64252;51.094;13.714;2023-07-13T07:07:41;100194.38;;;34.56;31.81
75656;BME280;64252;51.094;13.714;2023-07-13T07:10:07;100198.88;;;32.94;33.25
75656;BME280;64252;51.094;13.714;2023-07-13T07:12:33;100210.78;;;31.24;35.75
75656;BME280;64252;51.094;13.714;2023-07-13T07:14:59;100207.78;;;29.89;38.34
75656;BME280;64252;51.094;13.714;2023-07-13T07:17:25;100211.13;;;28.52;38.54
75656;BME280;64252;51.094;13.714;2023-07-13T07:19:52;100208.66;;;28.40;40.83
75656;BME280;64252;51.094;13.714;2023-07-13T07:22:20;100206.00;;;28.36;40.43
75656;BME280;64252;51.094;13.714;2023-07-13T07:24:46;100208.31;;;30.15;36.87
75656;BME280;64252;51.094;13.714;2023-07-13T07:27:12;100202.66;;;31.64;35.15
75656;BME280;64252;51.094;13.714;2023-07-13T07:29:37;100203.56;;;32.78;33.64
75656;BME280;64252;51.094;13.714;2023-07-13T07:32:03;100206.91;;;31.63;34.17
75656;BME280;64252;51.094;13.714;2023-07-13T07:34:30;100209.31;;;29.56;37.50
75656;BME280;64252;51.094;13.714;2023-07-13T07:37:01;100208.81;;;29.04;38.55
75656;BME280;64252;51.094;13.714;2023-07-13T07:39:28;100213.31;;;28.26;40.04
75656;BME280;64252;51.094;13.714;2023-07-13T07:41:54;100214.31;;;27.91;41.16
75656;BME280;64252;51.094;13.714;2023-07-13T07:44:20;100211.75;;;28.25;40.28
75656;BME280;64252;51.094;13.714;2023-07-13T07:46:46;100204.88;;;30.11;36.40
75656;BME280;64252;51.094;13.714;2023-07-13T07:49:12;100202.59;;;31.17;33.38
75656;BME280;64252;51.094;13.714;2023-07-13T07:51:38;100216.78;;;30.63;34.35
75656;BME280;64252;51.094;13.714;2023-07-13T07:54:05;100206.75;;;30.36;34.77
75656;BME280;64252;51.094;13.714;2023-07-13T07:56:31;100205.16;;;31.37;33.30
75656;BME280;64252;51.094;13.714;2023-07-13T07:58:57;100204.09;;;30.16;34.63
75656;BME280;64252;51.094;13.714;2023-07-13T08:01:23;100213.09;;;30.07;35.24
75656;BME280;64252;51.094;13.714;2023-07-13T08:03:48;100212.06;;;30.27;35.49
75656;BME280;64252;51.094;13.714;2023-07-13T08:06:14;100211.47;;;29.08;35.72
75656;BME280;64252;51.094;13.714;2023-07-13T08:08:40;100208.25;;;29.59;35.72
75656;BME280;64252;51.094;13.714;2023-07-13T08:11:07;100221.50;;;28.64;37.25
75656;BME280;64252;51.094;13.714;2023-07-13T08:13:34;100216.34;;;28.43;39.61
75656;BME280;64252;51.094;13.714;2023-07-13T08:16:00;100209.75;;;29.38;36.38
75656;BME280;64252;51.094;13.714;2023-07-13T08:18:26;100216.09;;;29.31;36.01
75656;BME280;64252;51.094;13.714;2023-07-13T08:20:54;100215.41;;;28.99;37.36
75656;BME280;64252;51.094;13.714;2023-07-13T08:23:22;100220.50;;;29.21;38.12
75656;BME280;64252;51.094;13.714;2023-07-13T08:25:52;100211.47;;;29.84;35.88
75656;BME280;64252;51.094;13.714;2023-07-13T08:28:19;100217.81;;;29.88;35.95
75656;BME280;64252;51.094;13.714;2023-07-13T08:30:45;100220.44;;;29.75;36.92
75656;BME280;64252;51.094;13.714;2023-07-13T08:33:18;100221.75;;;29.03;36.72
75656;BME280;64252;51.094;13.714;2023-07-13T08:35:48;100217.13;;;28.74;37.30
75656;BME280;64252;51.094;13.714;2023-07-13T08:38:15;100214.84;;;29.60;37.11
75656;BME280;64252;51.094;13.714;2023-07-13T08:40:43;100213.78;;;29.57;37.27
75656;BME280;64252;51.094;13.714;2023-07-13T08:43:16;100219.81;;;29.37;36.12
75656;BME280;64252;51.094;13.714;2023-07-13T08:45:56;100213.47;;;29.44;36.44
75656;BME280;64252;51.094;13.714;2023-07-13T08:48:36;100216.78;;;29.91;35.37
75656;BME280;64252;51.094;13.714;2023-07-13T08:54:02;100214.06;;;28.95;36.70
75656;BME280;64252;51.094;13.714;2023-07-13T08:56:30;100218.88;;;28.66;36.96
75656;BME280;64252;51.094;13.714;2023-07-13T08:59:01;100226.72;;;28.18;38.66
75656;BME280;64252;51.094;13.714;2023-07-13T09:02:06;100216.41;;;28.17;38.00
75656;BME280;64252;51.094;13.714;2023-07-13T09:04:53;100222.22;;;28.17;38.42
75656;BME280;64252;51.094;13.714;2023-07-13T09:08:04;100233.09;;;27.96;38.63
75656;BME280;64252;51.094;13.714;2023-07-13T09:10:32;100228.28;;;28.50;37.77
75656;BME280;64252;51.094;13.714;2023-07-13T09:15:45;100226.22;;;29.47;35.21
75656;BME280;64252;51.094;13.714;2023-07-13T09:18:26;100224.31;;;28.85;35.07
75656;BME280;64252;51.094;13.714;2023-07-13T09:21:17;100228.09;;;29.72;34.23
75656;BME280;64252;51.094;13.714;2023-07-13T09:23:43;100238.19;;;29.88;34.96
75656;BME280;64252;51.094;13.714;2023-07-13T09:28:44;100238.72;;;29.16;36.19
75656;BME280;64252;51.094;13.714;2023-07-13T09:31:11;100245.81;;;28.61;37.36
75656;BME280;64252;51.094;13.714;2023-07-13T09:33:39;100252.50;;;28.73;37.02
75656;BME280;64252;51.094;13.714;2023-07-13T09:36:24;100249.38;;;28.45;37.37
75656;BME280;64252;51.094;13.714;2023-07-13T09:41:47;100256.25;;;28.79;36.21
75656;BME280;64252;51.094;13.714;2023-07-13T09:44:17;100244.63;;;29.27;35.34
75656;BME280;64252;51.094;13.714;2023-07-13T09:46:46;100244.66;;;29.38;36.00
75656;BME280;64252;51.094;13.714;2023-07-13T09:49:15;100253.78;;;29.74;35.90
75656;BME280;64252;51.094;13.714;2023-07-13T09:51:41;100250.44;;;29.27;36.47
75656;BME280;64252;51.094;13.714;2023-07-13T09:54:19;100250.75;;;29.35;36.99
75656;BME280;64252;51.094;13.714;2023-07-13T09:56:45;100261.94;;;29.58;35.55
75656;BME280;64252;51.094;13.714;2023-07-13T09:59:20;100253.59;;;29.94;35.44
75656;BME280;64252;51.094;13.714;2023-07-13T10:01:46;100252.69;;;29.54;35.22
75656;BME280;64252;51.094;13.714;2023-07-13T10:04:18;100250.09;;;29.79;34.42
75656;BME280;64252;51.094;13.714;2023-07-13T10:06:45;100256.72;;;29.79;33.00
75656;BME280;64252;51.094;13.714;2023-07-13T10:09:16;100250.75;;;29.35;33.62
75656;BME280;64252;51.094;13.714;2023-07-13T10:11:42;100266.28;;;29.26;33.54
75656;BME280;64252;51.094;13.714;2023-07-13T10:14:14;100256.41;;;29.72;33.65
75656;BME280;64252;51.094;13.714;2023-07-13T10:16:42;100250.63;;;29.83;33.71
75656;BME280;64252;51.094;13.714;2023-07-13T10:19:19;100248.06;;;30.07;32.80
75656;BME280;64252;51.094;13.714;2023-07-13T10:22:02;100264.84;;;28.99;32.96
75656;BME280;64252;51.094;13.714;2023-07-13T10:24:32;100255.31;;;28.99;33.35
75656;BME280;64252;51.094;13.714;2023-07-13T10:27:05;100255.53;;;28.90;33.54
75656;BME280;64252;51.094;13.714;2023-07-13T10:30:09;100259.16;;;29.27;33.36
75656;BME280;64252;51.094;13.714;2023-07-13T10:32:37;100272.41;;;28.86;34.32
75656;BME280;64252;51.094;13.714;2023-07-13T10:35:03;100260.13;;;29.07;35.17
75656;BME280;64252;51.094;13.714;2023-07-13T10:37:52;100255.38;;;28.67;35.22
75656;BME280;64252;51.094;13.714;2023-07-13T10:40:25;100258.63;;;28.49;34.92
75656;BME280;64252;51.094;13.714;2023-07-13T10:42:54;100253.59;;;29.29;34.92
75656;BME280;64252;51.094;13.714;2023-07-13T10:45:23;100251.41;;;29.72;33.06
75656;BME280;64252;51.094;13.714;2023-07-13T10:47:51;100245.34;;;29.87;34.39
75656;BME280;64252;51.094;13.714;2023-07-13T10:50:24;100239.03;;;30.38;33.26
75656;BME280;64252;51.094;13.714;2023-07-13T10:53:03;100245.94;;;30.35;32.71
75656;BME280;64252;51.094;13.714;2023-07-13T10:58:21;100242.44;;;30.98;32.40
75656;BME280;64252;51.094;13.714;2023-07-13T11:01:06;100234.56;;;30.26;32.39
75656;BME280;64252;51.094;13.714;2023-07-13T11:03:36;100239.03;;;29.18;33.85
75656;BME280;64252;51.094;13.714;2023-07-13T11:21:17;100242.31;;;28.89;36.22
75656;BME280;64252;51.094;13.714;2023-07-13T11:23:51;100243.66;;;29.47;35.50
75656;BME280;64252;51.094;13.714;2023-07-13T11:31:51;100246.78;;;29.32;34.73
75656;BME280;64252;51.094;13.714;2023-07-13T11:34:24;100246.44;;;29.24;34.43
75656;BME280;64252;51.094;13.714;2023-07-13T11:36:52;100239.75;;;29.72;32.65
75656;BME280;64252;51.094;13.714;2023-07-13T11:39:42;100242.50;;;30.26;32.56
75656;BME280;64252;51.094;13.714;2023-07-13T11:42:12;100238.72;;;29.75;33.06
75656;BME280;64252;51.094;13.714;2023-07-13T11:44:50;100248.22;;;29.70;32.83
75656;BME280;64252;51.094;13.714;2023-07-13T11:47:22;100235.16;;;29.32;33.91
75656;BME280;64252;51.094;13.714;2023-07-13T11:49:50;100235.47;;;29.51;34.55
75656;BME280;64252;51.094;13.714;2023-07-13T11:52:22;100244.75;;;29.60;34.02
75656;BME280;64252;51.094;13.714;2023-07-13T11:54:53;100232.69;;;30.34;32.65
75656;BME280;64252;51.094;13.714;2023-07-13T11:57:26;100226.91;;;30.45;33.13
75656;BME280;64252;51.094;13.714;2023-07-13T11:59:55;100238.06;;;29.32;33.39
75656;BME280;64252;51.094;13.714;2023-07-13T12:02:36;100233.69;;;29.70;33.51
75656;BME280;64252;51.094;13.714;2023-07-13T12:05:04;100231.25;;;29.63;33.57
75656;BME280;64252;51.094;13.714;2023-07-13T12:07:32;100227.31;;;29.60;32.24
75656;BME280;64252;51.094;13.714;2023-07-13T12:10:03;100226.63;;;29.23;32.73
75656;BME280;64252;51.094;13.714;2023-07-13T12:12:36;100213.47;;;29.33;33.78
75656;BME280;64252;51.094;13.714;2023-07-13T12:17:34;100215.41;;;29.70;32.43
75656;BME280;64252;51.094;13.714;2023-07-13T12:20:12;100218.00;;;29.51;32.62
75656;BME280;64252;51.094;13.714;2023-07-13T12:22:46;100216.91;;;29.32;33.15
75656;BME280;64252;51.094;13.714;2023-07-13T12:25:12;100212.31;;;29.25;33.39
75656;BME280;64252;51.094;13.714;2023-07-13T12:27:39;100225.09;;;29.33;34.39
75656;BME280;64252;51.094;13.714;2023-07-13T12:30:27;100217.50;;;28.99;33.25
75656;BME280;64252;51.094;13.714;2023-07-13T12:33:06;100220.09;;;28.86;34.55
75656;BME280;64252;51.094;13.714;2023-07-13T12:35:40;100217.50;;;28.99;33.72
75656;BME280;64252;51.094;13.714;2023-07-13T12:38:10;100215.84;;;29.35;33.67
75656;BME280;64252;51.094;13.714;2023-07-13T12:40:39;100217.34;;;29.24;32.71
75656;BME280;64252;51.094;13.714;2023-07-13T12:43:13;100209.69;;;29.27;32.76
75656;BME280;64252;51.094;13.714;2023-07-13T12:48:39;100209.31;;;29.56;33.20
75656;BME280;64252;51.094;13.714;2023-07-13T12:51:13;100207.19;;;29.57;31.71
75656;BME280;64252;51.094;13.714;2023-07-13T12:53:42;100212.94;;;29.40;32.34
75656;BME280;64252;51.094;13.714;2023-07-13T12:56:15;100219.41;;;29.07;32.46
75656;BME280;64252;51.094;13.714;2023-07-13T12:58:42;100215.91;;;28.98;32.16
75656;BME280;64252;51.094;13.714;2023-07-13T13:01:11;100214.28;;;28.86;31.21
75656;BME280;64252;51.094;13.714;2023-07-13T13:03:49;100216.69;;;28.56;32.29
75656;BME280;64252;51.094;13.714;2023-07-13T13:08:55;100213.88;;;29.15;31.42
75656;BME280;64252;51.094;13.714;2023-07-13T13:11:22;100211.59;;;29.30;31.24
75656;BME280;64252;51.094;13.714;2023-07-13T13:13:49;100209.22;;;29.34;30.54
75656;BME280;64252;51.094;13.714;2023-07-13T13:16:35;100207.47;;;29.00;30.42
75656;BME280;64252;51.094;13.714;2023-07-13T13:19:25;100205.19;;;28.72;31.57
75656;BME280;64252;51.094;13.714;2023-07-13T13:21:54;100203.19;;;29.49;31.57
75656;BME280;64252;51.094;13.714;2023-07-13T13:24:22;100197.63;;;29.45;31.34
75656;BME280;64252;51.094;13.714;2023-07-13T13:26:50;100209.25;;;29.45;31.76
75656;BME280;64252;51.094;13.714;2023-07-13T13:29:19;100209.50;;;29.36;31.79
75656;BME280;64252;51.094;13.714;2023-07-13T13:31:45;100211.84;;;28.78;32.39
75656;BME280;64252;51.094;13.714;2023-07-13T13:34:14;100203.22;;;29.01;32.16